createdAt,value
2019-05-22T00:00:12.545Z,94.26
2019-05-22T00:02:45.190Z,94.17
2019-05-22T00:05:20.216Z,94.36
2019-05-22T00:07:51.894Z,94.40
2019-05-22T00:10:26.765Z,94.53
2019-05-22T00:12:59.712Z,94.59
2019-05-22T00:15:32.461Z,94.69
2019-05-22T00:18:08.168Z,94.60
2019-05-22T00:20:41.285Z,94.67
2019-05-22T00:23:14.562Z,94.85
2019-05-22T00:25:48.093Z,94.94
2019-05-22T00:28:20.016Z,95.04
2019-05-22T00:30:53.034Z,95.28
2019-05-22T00:33:25.731Z,95.43
2019-05-22T00:35:59.901Z,95.62
2019-05-22T00:38:33.808Z,95.74
2019-05-22T00:41:06.955Z,95.72
2019-05-22T00:43:40.143Z,95.41
2019-05-22T00:46:14.308Z,95.55
2019-05-22T00:48:48.331Z,95.72
2019-05-22T00:51:22.537Z,96.00
2019-05-22T00:53:56.511Z,96.04
2019-05-22T00:56:30.903Z,96.09
2019-05-22T00:59:04.417Z,96.22
2019-05-22T01:01:37.325Z,96.16
2019-05-22T01:04:12.211Z,96.31
2019-05-22T01:06:46.677Z,96.30
2019-05-22T01:09:20.942Z,96.47
2019-05-22T01:11:53.523Z,96.67
2019-05-22T01:14:41.991Z,96.68
2019-05-22T01:17:04.082Z,96.76
2019-05-22T01:19:36.210Z,96.90
2019-05-22T01:22:09.706Z,96.87
2019-05-22T01:24:42.789Z,96.88
2019-05-22T01:27:15.823Z,96.96
2019-05-22T01:29:48.262Z,97.08
2019-05-22T01:32:21.812Z,97.14
2019-05-22T01:34:52.976Z,97.20
2019-05-22T01:37:27.928Z,97.14
2019-05-22T01:40:03.369Z,97.12
2019-05-22T01:42:39.655Z,97.14
2019-05-22T01:45:13.364Z,97.32
2019-05-22T01:47:48.828Z,97.42
2019-05-22T01:50:25.324Z,97.55
2019-05-22T01:52:57.189Z,97.61
2019-05-22T01:55:30.743Z,97.58
2019-05-22T01:58:03.915Z,97.53
2019-05-22T02:00:36.425Z,97.50
2019-05-22T02:03:11.107Z,97.52
2019-05-22T02:05:42.750Z,97.36
2019-05-22T02:08:15.786Z,97.22
2019-05-22T02:10:49.316Z,97.10
2019-05-22T02:13:26.099Z,97.16
2019-05-22T02:15:57.782Z,97.12
2019-05-22T02:18:30.385Z,97.10
2019-05-22T02:21:04.210Z,97.00
2019-05-22T02:23:39.048Z,96.98
2019-05-22T02:26:13.405Z,96.59
2019-05-22T02:28:46.114Z,96.62
2019-05-22T02:31:19.984Z,96.68
2019-05-22T02:33:53.654Z,96.28
2019-05-22T02:36:27.250Z,96.44
2019-05-22T02:38:59.623Z,96.46
2019-05-22T02:41:36.025Z,96.43
2019-05-22T02:44:08.428Z,96.45
2019-05-22T02:46:41.277Z,96.39
2019-05-22T02:49:14.750Z,96.31
2019-05-22T02:51:48.048Z,95.96
2019-05-22T02:54:19.748Z,96.17
2019-05-22T02:56:52.778Z,96.23
2019-05-22T02:59:24.176Z,96.46
2019-05-22T03:01:56.950Z,96.50
2019-05-22T03:04:33.894Z,96.61
2019-05-22T03:07:06.546Z,96.51
2019-05-22T03:09:46.624Z,96.15
2019-05-22T03:12:17.181Z,96.08
2019-05-22T03:14:49.336Z,96.10
2019-05-22T03:17:24.854Z,96.23
2019-05-22T03:19:58.483Z,95.91
2019-05-22T03:22:34.790Z,95.91
2019-05-22T03:25:10.772Z,95.86
2019-05-22T03:27:47.026Z,95.39
2019-05-22T03:30:20.971Z,95.17
2019-05-22T03:32:56.703Z,95.23
2019-05-22T03:35:31.209Z,95.18
2019-05-22T03:38:05.075Z,95.34
2019-05-22T03:40:38.462Z,95.56
2019-05-22T03:43:13.790Z,95.53
2019-05-22T03:45:46.217Z,95.37
2019-05-22T03:48:20.410Z,95.21
2019-05-22T03:50:54.991Z,95.18
2019-05-22T03:53:27.242Z,95.46
2019-05-22T03:55:59.196Z,95.38
2019-05-22T03:58:31.702Z,95.28
2019-05-22T04:01:04.813Z,95.73
2019-05-22T04:03:36.802Z,95.50
2019-05-22T04:06:10.210Z,95.57
2019-05-22T04:08:43.109Z,95.63
2019-05-22T04:11:15.864Z,95.81
2019-05-22T04:13:48.128Z,95.55
2019-05-22T04:16:21.984Z,95.40
2019-05-22T04:18:56.248Z,95.59
2019-05-22T04:21:29.074Z,95.62
2019-05-22T04:24:02.383Z,95.85
2019-05-22T04:26:33.580Z,95.60
2019-05-22T04:29:07.227Z,95.22
2019-05-22T04:31:40.740Z,95.26
2019-05-22T04:34:13.340Z,95.21
2019-05-22T04:36:46.958Z,95.30
2019-05-22T04:39:20.903Z,95.30
2019-05-22T04:41:53.146Z,95.39
2019-05-22T04:44:26.912Z,95.28
2019-05-22T04:47:00.664Z,95.28
2019-05-22T04:49:32.811Z,95.18
2019-05-22T04:52:04.717Z,95.26
2019-05-22T04:54:38.149Z,95.31
2019-05-22T04:57:10.420Z,95.59
2019-05-22T04:59:44.888Z,95.48
2019-05-22T05:02:16.823Z,95.92
2019-05-22T05:04:49.864Z,95.85
2019-05-22T05:07:23.392Z,95.79
2019-05-22T05:09:55.702Z,95.86
2019-05-22T05:12:27.280Z,95.95
2019-05-22T05:14:59.373Z,95.95
2019-05-22T05:17:31.121Z,95.85
2019-05-22T05:20:03.286Z,95.82
2019-05-22T05:22:37.818Z,95.95
2019-05-22T05:25:10.400Z,95.84
2019-05-22T05:27:43.719Z,95.88
2019-05-22T05:30:19.176Z,95.79
2019-05-22T05:32:51.603Z,95.95
2019-05-22T05:35:23.750Z,96.02
2019-05-22T05:37:56.000Z,96.21
2019-05-22T05:40:32.673Z,96.07
2019-05-22T05:43:07.141Z,96.13
2019-05-22T05:45:42.559Z,95.97
2019-05-22T05:48:17.896Z,95.42
2019-05-22T05:50:52.453Z,95.59
2019-05-22T05:53:25.853Z,95.50
2019-05-22T05:56:01.864Z,95.77
2019-05-22T05:58:34.824Z,96.08
2019-05-22T06:01:11.614Z,96.10
2019-05-22T06:03:43.625Z,96.10
2019-05-22T06:06:18.801Z,96.25
2019-05-22T06:08:52.237Z,96.34
2019-05-22T06:11:27.605Z,96.63
2019-05-22T06:14:00.700Z,96.73
2019-05-22T06:16:37.182Z,97.02
2019-05-22T06:19:10.236Z,96.70
2019-05-22T06:21:44.159Z,96.79
2019-05-22T06:24:19.936Z,97.06
2019-05-22T06:26:54.664Z,97.16
2019-05-22T06:29:30.170Z,97.12
2019-05-22T06:32:04.096Z,97.22
2019-05-22T06:34:37.796Z,97.26
2019-05-22T06:37:13.696Z,97.14
2019-05-22T06:39:48.269Z,97.21
2019-05-22T06:42:21.407Z,97.07
2019-05-22T06:44:53.168Z,97.08
2019-05-22T06:47:27.422Z,97.19
2019-05-22T06:49:59.594Z,97.40
2019-05-22T06:52:31.790Z,97.36
2019-05-22T06:55:04.791Z,97.32
2019-05-22T06:57:36.995Z,97.54
2019-05-22T07:00:14.848Z,97.54
2019-05-22T07:02:46.169Z,97.11
2019-05-22T07:05:18.692Z,96.86
2019-05-22T07:07:51.946Z,96.82
2019-05-22T07:10:24.594Z,96.73
2019-05-22T07:12:58.364Z,97.10
2019-05-22T07:15:34.539Z,96.98
2019-05-22T07:18:08.012Z,97.07
2019-05-22T07:20:40.298Z,96.99
2019-05-22T07:23:13.305Z,97.11
2019-05-22T07:25:46.649Z,97.16
2019-05-22T07:28:20.200Z,97.45
2019-05-22T07:30:53.983Z,97.07
2019-05-22T07:33:26.159Z,97.34
2019-05-22T07:36:17.243Z,96.77
2019-05-22T07:38:34.904Z,96.81
2019-05-22T07:41:09.115Z,96.64
2019-05-22T07:43:42.294Z,96.79
2019-05-22T07:46:14.967Z,96.94
2019-05-22T07:48:47.983Z,97.12
2019-05-22T07:51:20.927Z,96.85
2019-05-22T07:53:52.430Z,96.67
2019-05-22T07:56:24.589Z,96.73
2019-05-22T07:58:59.160Z,96.77
2019-05-22T08:01:31.751Z,96.84
2019-05-22T08:04:04.941Z,96.80
2019-05-22T08:06:37.952Z,96.87
2019-05-22T08:09:12.246Z,96.60
2019-05-22T08:11:44.684Z,96.62
2019-05-22T08:14:18.860Z,95.74
2019-05-22T08:16:51.356Z,95.74
2019-05-22T08:19:23.896Z,95.88
2019-05-22T08:22:06.862Z,96.18
2019-05-22T08:24:30.185Z,96.24
2019-05-22T08:27:02.065Z,96.33
2019-05-22T08:29:33.974Z,95.65
2019-05-22T08:32:08.446Z,96.12
2019-05-22T08:34:44.482Z,96.38
2019-05-22T08:37:20.921Z,96.20
2019-05-22T08:39:53.320Z,96.03
2019-05-22T08:42:26.404Z,94.96
2019-05-22T08:44:58.296Z,95.51
2019-05-22T08:47:31.134Z,95.46
2019-05-22T08:50:03.605Z,95.70
2019-05-22T08:52:36.361Z,95.12
2019-05-22T08:55:11.083Z,95.81
2019-05-22T08:57:44.991Z,95.06
2019-05-22T09:00:19.006Z,95.43
2019-05-22T09:02:51.711Z,95.71
2019-05-22T09:05:24.917Z,95.59
2019-05-22T09:07:57.553Z,95.36
2019-05-22T09:10:30.406Z,94.83
2019-05-22T09:13:02.641Z,95.13
2019-05-22T09:15:40.424Z,94.85
2019-05-22T09:18:12.747Z,95.03
2019-05-22T09:20:49.399Z,95.06
2019-05-22T09:23:19.880Z,95.25
2019-05-22T09:25:51.801Z,95.85
2019-05-22T09:28:23.949Z,95.64
2019-05-22T09:30:56.610Z,95.41
2019-05-22T09:33:29.829Z,94.72
2019-05-22T09:36:02.250Z,95.34
2019-05-22T09:38:45.242Z,94.59
2019-05-22T09:41:20.767Z,94.33
2019-05-22T09:43:52.853Z,94.33
2019-05-22T09:46:26.563Z,94.11
2019-05-22T09:48:58.363Z,93.53
2019-05-22T09:51:30.550Z,92.95
2019-05-22T09:54:03.623Z,92.83
2019-05-22T09:56:36.028Z,92.42
2019-05-22T09:59:08.492Z,92.57
2019-05-22T10:01:40.949Z,92.13
2019-05-22T10:04:14.162Z,92.16
2019-05-22T10:06:46.217Z,90.75
2019-05-22T10:09:17.819Z,91.25
2019-05-22T10:11:50.485Z,90.74
2019-05-22T10:14:29.397Z,91.54
2019-05-22T10:17:04.074Z,92.12
2019-05-22T10:19:36.259Z,90.05
2019-05-22T10:22:10.272Z,90.30
2019-05-22T10:24:42.276Z,89.79
2019-05-22T10:27:14.645Z,89.79
2019-05-22T10:29:46.848Z,89.73
2019-05-22T10:32:19.026Z,89.41
2019-05-22T10:34:50.936Z,87.42
2019-05-22T10:37:23.398Z,87.94
2019-05-22T10:39:55.631Z,88.61
2019-05-22T10:42:27.850Z,88.74
2019-05-22T10:45:02.269Z,88.60
2019-05-22T10:47:35.031Z,87.94
2019-05-22T10:50:08.238Z,87.49
2019-05-22T10:52:40.884Z,88.09
2019-05-22T10:55:14.179Z,87.54
2019-05-22T10:57:46.451Z,86.17
2019-05-22T11:00:20.359Z,86.28
2019-05-22T11:02:53.673Z,86.13
2019-05-22T11:05:26.023Z,85.63
2019-05-22T11:07:58.111Z,86.72
2019-05-22T11:10:33.617Z,85.22
2019-05-22T11:13:05.793Z,85.34
2019-05-22T11:15:38.052Z,84.68
2019-05-22T11:18:12.303Z,86.02
2019-05-22T11:20:44.232Z,85.23
2019-05-22T11:23:16.212Z,84.34
2019-05-22T11:25:48.563Z,85.18
2019-05-22T11:28:21.634Z,83.93
2019-05-22T11:30:54.967Z,85.14
2019-05-22T11:33:27.921Z,83.52
2019-05-22T11:36:00.242Z,83.27
2019-05-22T11:38:33.998Z,83.02
2019-05-22T11:41:08.920Z,83.89
2019-05-22T11:43:41.451Z,83.16
2019-05-22T11:46:14.686Z,83.55
2019-05-22T11:48:47.443Z,82.34
2019-05-22T11:51:22.215Z,83.57
2019-05-22T11:57:36.195Z,81.90
2019-05-22T12:00:13.349Z,82.05
2019-05-22T12:02:58.501Z,83.43
2019-05-22T12:05:32.635Z,80.59
2019-05-22T12:08:04.723Z,80.83
2019-05-22T12:10:43.072Z,80.80
2019-05-22T12:13:18.599Z,82.12
2019-05-22T12:15:51.894Z,81.50
2019-05-22T12:18:24.199Z,82.90
2019-05-22T12:20:56.031Z,83.21
2019-05-22T12:23:34.421Z,82.38
2019-05-22T12:26:23.534Z,82.68
2019-05-22T12:29:01.817Z,79.23
2019-05-22T12:31:38.579Z,80.93
2019-05-22T12:34:09.771Z,80.00
2019-05-22T12:36:42.446Z,79.47
2019-05-22T12:39:16.121Z,79.38
2019-05-22T12:41:50.888Z,79.48
2019-05-22T12:44:24.281Z,79.20
2019-05-22T12:46:56.793Z,77.68
2019-05-22T12:49:29.114Z,79.97
2019-05-22T12:52:04.876Z,79.19
2019-05-22T12:54:47.252Z,80.04
2019-05-22T12:57:11.358Z,79.54
2019-05-22T12:59:46.265Z,79.44
2019-05-22T13:02:18.608Z,79.91
2019-05-22T13:04:55.520Z,79.95
2019-05-22T13:07:30.384Z,79.89
2019-05-22T13:10:02.275Z,79.39
2019-05-22T13:12:35.121Z,80.89
2019-05-22T13:15:10.819Z,78.95
2019-05-22T13:17:42.986Z,79.23
2019-05-22T13:20:18.242Z,80.38
2019-05-22T13:22:53.047Z,79.41
2019-05-22T13:25:28.715Z,80.47
2019-05-22T13:28:03.172Z,79.85
2019-05-22T13:30:38.075Z,79.78
2019-05-22T13:33:14.335Z,79.09
2019-05-22T13:35:46.427Z,79.23
2019-05-22T13:38:20.098Z,78.38
2019-05-22T13:48:44.215Z,77.61
2019-05-22T13:51:17.257Z,77.18
2019-05-22T13:53:50.022Z,77.75
2019-05-22T13:56:25.517Z,76.71
2019-05-22T13:58:57.642Z,78.00
2019-05-22T14:01:30.418Z,77.74
2019-05-22T14:04:03.296Z,77.05
2019-05-22T14:06:36.488Z,78.06
2019-05-22T14:09:11.754Z,78.49
2019-05-22T14:11:44.991Z,79.19
2019-05-22T14:14:16.309Z,79.42
2019-05-22T14:16:49.554Z,78.53
2019-05-22T14:19:22.817Z,79.04
2019-05-22T14:21:56.330Z,79.58
2019-05-22T14:24:28.370Z,79.96
2019-05-22T14:27:03.039Z,78.75
2019-05-22T14:29:36.085Z,79.40
2019-05-22T14:32:10.010Z,79.01
2019-05-22T14:34:42.625Z,79.39
2019-05-22T14:37:16.200Z,80.25
2019-05-22T14:39:49.927Z,80.73
2019-05-22T14:42:23.009Z,80.94
2019-05-22T14:44:56.647Z,80.95
2019-05-22T14:47:28.526Z,81.39
2019-05-22T14:50:01.434Z,81.72
2019-05-22T14:52:34.291Z,82.44
2019-05-22T14:55:07.651Z,81.94
2019-05-22T14:57:41.826Z,82.34
2019-05-22T15:00:18.246Z,82.65
2019-05-22T15:02:56.540Z,82.00
2019-05-22T15:05:27.086Z,82.40
2019-05-22T15:07:59.694Z,83.16
2019-05-22T15:10:31.818Z,83.59
2019-05-22T15:13:03.999Z,83.88
2019-05-22T15:15:40.180Z,84.02
2019-05-22T15:18:09.758Z,84.37
2019-05-22T15:20:43.029Z,84.39
2019-05-22T15:23:15.562Z,84.59
2019-05-22T15:25:48.369Z,85.19
2019-05-22T15:28:20.207Z,85.39
2019-05-22T15:30:55.208Z,85.48
2019-05-22T15:33:27.672Z,86.09
2019-05-22T15:36:00.223Z,86.33
2019-05-22T15:38:33.050Z,86.16
2019-05-22T15:41:06.926Z,86.94
2019-05-22T15:43:41.049Z,88.20
2019-05-22T15:46:16.378Z,89.81
2019-05-22T15:48:51.230Z,90.31
2019-05-22T15:51:26.402Z,91.78
2019-05-22T15:54:00.560Z,91.76
2019-05-22T15:56:34.722Z,92.42
2019-05-22T15:59:09.068Z,92.58
2019-05-22T16:01:41.881Z,93.14
2019-05-22T16:04:15.563Z,93.06
2019-05-22T16:06:48.677Z,94.81
2019-05-22T16:09:21.446Z,94.76
2019-05-22T16:11:55.732Z,94.74
2019-05-22T16:14:28.994Z,94.87
2019-05-22T16:17:04.650Z,94.67
2019-05-22T16:19:37.596Z,94.95
2019-05-22T16:22:10.963Z,95.06
2019-05-22T16:24:43.902Z,95.54
2019-05-22T16:27:18.295Z,95.23
2019-05-22T16:29:50.300Z,95.11
2019-05-22T16:32:26.519Z,95.30
2019-05-22T16:34:58.743Z,95.34
2019-05-22T16:37:31.290Z,95.66
2019-05-22T16:40:04.592Z,95.94
2019-05-22T16:42:38.726Z,96.31
2019-05-22T16:45:11.239Z,96.22
2019-05-22T16:47:44.405Z,96.19
2019-05-22T16:50:18.150Z,95.88
2019-05-22T16:52:52.500Z,96.01
2019-05-22T16:55:25.583Z,96.06
2019-05-22T16:57:58.252Z,96.30
2019-05-22T17:00:31.477Z,96.25
2019-05-22T17:03:05.354Z,96.25
2019-05-22T17:05:39.022Z,96.25
2019-05-22T17:08:13.148Z,96.43
2019-05-22T17:10:45.722Z,96.30
2019-05-22T17:13:17.484Z,96.31
2019-05-22T17:15:50.393Z,96.49
2019-05-22T17:18:22.290Z,96.56
2019-05-22T17:20:54.788Z,96.81
2019-05-22T17:23:28.965Z,96.87
2019-05-22T17:26:01.426Z,96.91
2019-05-22T17:28:34.458Z,96.34
2019-05-22T17:31:07.376Z,96.34
2019-05-22T17:33:39.794Z,96.33
2019-05-22T17:36:12.778Z,96.21
2019-05-22T17:38:46.223Z,96.48
2019-05-22T17:41:19.087Z,96.48
2019-05-22T17:43:51.948Z,96.17
2019-05-22T17:46:25.123Z,96.30
2019-05-22T17:49:00.831Z,96.45
2019-05-22T17:51:33.594Z,96.59
2019-05-22T17:54:07.247Z,96.48
2019-05-22T17:56:39.593Z,96.63
2019-05-22T17:59:12.207Z,96.55
2019-05-22T18:01:44.461Z,96.52
2019-05-22T18:04:16.381Z,96.49
2019-05-22T18:06:49.962Z,96.29
2019-05-22T18:09:22.721Z,96.06
2019-05-22T18:11:54.335Z,95.94
2019-05-22T18:14:27.582Z,96.01
2019-05-22T18:16:59.956Z,95.87
2019-05-22T18:19:33.354Z,96.07
2019-05-22T18:22:06.585Z,96.55
2019-05-22T18:24:39.214Z,96.50
2019-05-22T18:27:13.730Z,96.54
2019-05-22T18:29:45.286Z,95.95
2019-05-22T18:32:18.025Z,96.45
2019-05-22T18:34:50.072Z,95.96
2019-05-22T18:37:22.550Z,96.14
2019-05-22T18:39:54.640Z,96.08
2019-05-22T18:42:27.029Z,96.06
2019-05-22T18:44:59.595Z,95.95
2019-05-22T18:47:32.566Z,96.00
2019-05-22T18:50:07.181Z,96.05
2019-05-22T18:52:41.356Z,96.09
2019-05-22T18:55:12.730Z,96.00
2019-05-22T18:57:46.956Z,96.24
2019-05-22T19:00:21.795Z,96.29
2019-05-22T19:02:53.684Z,96.17
2019-05-22T19:05:30.568Z,96.22
2019-05-22T19:08:03.224Z,96.39
2019-05-22T19:10:34.702Z,96.23
2019-05-22T19:13:06.762Z,96.38
2019-05-22T19:15:41.448Z,96.63
2019-05-22T19:18:13.547Z,96.67
2019-05-22T19:20:46.765Z,96.42
2019-05-22T19:23:18.723Z,96.54
2019-05-22T19:25:50.526Z,96.48
2019-05-22T19:28:22.985Z,96.51
2019-05-22T19:30:56.771Z,96.38
2019-05-22T19:33:29.334Z,96.63
2019-05-22T19:36:01.883Z,96.52
2019-05-22T19:38:36.122Z,96.36
2019-05-22T19:41:08.319Z,96.26
2019-05-22T19:43:40.219Z,96.09
2019-05-22T19:46:12.955Z,96.19
2019-05-22T19:48:45.048Z,96.47
2019-05-22T19:51:20.152Z,95.94
2019-05-22T19:53:52.571Z,95.70
2019-05-22T19:56:24.975Z,96.14
2019-05-22T19:58:56.575Z,96.13
2019-05-22T20:01:29.714Z,96.06
2019-05-22T20:04:01.772Z,96.30
2019-05-22T20:06:33.757Z,96.40
2019-05-22T20:09:09.464Z,96.25
2019-05-22T20:11:41.814Z,96.25
2019-05-22T20:14:16.315Z,96.32
2019-05-22T20:16:48.892Z,96.41
2019-05-22T20:19:22.058Z,96.28
2019-05-22T20:21:54.673Z,96.13
2019-05-22T20:24:27.949Z,96.05
2019-05-22T20:27:00.368Z,96.42
2019-05-22T20:29:35.429Z,95.94
2019-05-22T20:32:08.830Z,95.95
2019-05-22T20:34:40.513Z,96.06
2019-05-22T20:37:13.354Z,96.12
2019-05-22T20:39:46.965Z,96.23
2019-05-22T20:42:19.904Z,96.44
2019-05-22T20:44:52.273Z,96.18
2019-05-22T20:47:26.002Z,96.43
2019-05-22T20:49:57.563Z,96.35
2019-05-22T20:52:36.623Z,96.41
2019-05-22T20:55:17.067Z,96.53
2019-05-22T20:57:49.356Z,96.20
2019-05-22T21:00:23.519Z,96.30
2019-05-22T21:02:58.610Z,96.13
2019-05-22T21:05:32.614Z,96.40
2019-05-22T21:08:08.169Z,95.85
2019-05-22T21:10:43.676Z,95.61
2019-05-22T21:13:17.345Z,96.06
2019-05-22T21:15:50.947Z,95.10
2019-05-22T21:18:24.659Z,95.10
2019-05-22T21:20:56.330Z,95.47
2019-05-22T21:23:29.601Z,94.90
2019-05-22T21:26:02.548Z,95.02
2019-05-22T21:28:34.536Z,94.91
2019-05-22T21:31:07.561Z,94.62
2019-05-22T21:33:40.564Z,94.27
2019-05-22T21:36:15.367Z,94.14
2019-05-22T21:38:48.379Z,94.69
2019-05-22T21:41:22.422Z,94.66
2019-05-22T21:43:54.350Z,94.58
2019-05-22T21:46:26.270Z,94.93
2019-05-22T21:48:59.019Z,94.39
2019-05-22T21:51:31.201Z,93.96
2019-05-22T21:54:06.944Z,94.28
2019-05-22T21:56:39.124Z,94.77
2019-05-22T21:59:12.521Z,94.24
2019-05-22T22:01:46.776Z,94.56
2019-05-22T22:04:21.350Z,94.07
2019-05-22T22:06:55.348Z,93.99
2019-05-22T22:09:29.869Z,94.35
2019-05-22T22:12:02.906Z,94.58
2019-05-22T22:14:35.563Z,94.19
2019-05-22T22:17:09.029Z,94.25
2019-05-22T22:19:42.448Z,94.06
2019-05-22T22:22:17.228Z,94.11
2019-05-22T22:24:50.802Z,94.27
2019-05-22T22:27:23.272Z,94.30
2019-05-22T22:29:56.424Z,94.68
2019-05-22T22:32:30.024Z,94.44
2019-05-22T22:35:01.471Z,94.69
2019-05-22T22:37:33.798Z,94.54
2019-05-22T22:40:05.879Z,95.04
2019-05-22T22:42:40.149Z,94.82
2019-05-22T22:45:15.951Z,94.81
2019-05-22T22:47:48.427Z,94.79
2019-05-22T22:50:21.792Z,95.06
2019-05-22T22:52:54.304Z,94.96
2019-05-22T22:55:28.384Z,94.95
2019-05-22T22:58:16.148Z,94.93
2019-05-22T23:00:36.543Z,95.13
2019-05-22T23:03:12.906Z,94.59
2019-05-22T23:05:48.863Z,94.68
2019-05-22T23:08:24.793Z,94.94
2019-05-22T23:10:58.964Z,94.76
2019-05-22T23:13:34.085Z,94.95
2019-05-22T23:16:07.185Z,94.94
2019-05-22T23:18:38.703Z,94.93
2019-05-22T23:21:10.023Z,94.63
2019-05-22T23:23:42.007Z,95.06
2019-05-22T23:26:14.876Z,95.12
2019-05-22T23:28:48.262Z,95.13
2019-05-22T23:31:21.244Z,95.31
2019-05-22T23:33:54.217Z,95.10
2019-05-22T23:36:26.757Z,95.35
2019-05-22T23:39:01.219Z,95.10
2019-05-22T23:41:36.340Z,94.91
2019-05-22T23:44:11.763Z,95.09
2019-05-22T23:46:43.646Z,95.11
2019-05-22T23:49:17.093Z,95.29
2019-05-22T23:51:48.670Z,95.25
2019-05-22T23:54:24.300Z,95.40
2019-05-22T23:56:57.114Z,95.38
2019-05-22T23:59:30.638Z,95.49
